sensor_id;sensor_type;location;lat;lon;timestamp;pressure;altitude;pressure_sealevel;temperature;humidity
4199;BME280;2113;50.946;14.610;2022-07-01T00:00:22;96762.66;;;20.53;71.08
4199;BME280;2113;50.946;14.610;2022-07-01T00:02:49;96768.81;;;20.54;70.50
4199;BME280;2113;50.946;14.610;2022-07-01T00:05:18;96761.97;;;20.51;70.45
4199;BME280;2113;50.946;14.610;2022-07-01T00:07:47;96765.84;;;20.36;71.31
4199;BME280;2113;50.946;14.610;2022-07-01T00:10:15;96770.19;;;20.37;70.84
4199;BME280;2113;50.946;14.610;2022-07-01T00:12:43;96767.28;;;20.40;70.96
4199;BME280;2113;50.946;14.610;2022-07-01T00:15:11;96764.19;;;20.35;71.56
4199;BME280;2113;50.946;14.610;2022-07-01T00:17:38;96764.19;;;20.35;71.80
4199;BME280;2113;50.946;14.610;2022-07-01T00:20:08;96754.78;;;20.42;71.67
4199;BME280;2113;50.946;14.610;2022-07-01T00:22:36;96749.53;;;20.31;72.09
4199;BME280;2113;50.946;14.610;2022-07-01T00:25:06;96743.53;;;20.29;71.06
4199;BME280;2113;50.946;14.610;2022-07-01T00:27:37;96744.13;;;20.32;70.69
4199;BME280;2113;50.946;14.610;2022-07-01T00:30:06;96743.09;;;20.24;70.86
4199;BME280;2113;50.946;14.610;2022-07-01T01:17:03;96730.47;;;19.84;73.55
4199;BME280;2113;50.946;14.610;2022-07-01T01:19:31;96728.72;;;20.17;72.08
4199;BME280;2113;50.946;14.610;2022-07-01T01:22:00;96727.28;;;20.12;71.38
4199;BME280;2113;50.946;14.610;2022-07-01T01:24:28;96727.75;;;20.18;70.88
4199;BME280;2113;50.946;14.610;2022-07-01T01:26:56;96722.97;;;20.11;70.76
4199;BME280;2113;50.946;14.610;2022-07-01T01:29:24;96720.50;;;19.99;71.00
4199;BME280;2113;50.946;14.610;2022-07-01T01:31:52;96713.66;;;19.85;71.87
4199;BME280;2113;50.946;14.610;2022-07-01T01:34:20;96721.72;;;19.49;73.33
4199;BME280;2113;50.946;14.610;2022-07-01T01:36:48;96715.34;;;19.63;73.12
4199;BME280;2113;50.946;14.610;2022-07-01T01:39:17;96716.44;;;19.61;73.51
4199;BME280;2113;50.946;14.610;2022-07-01T01:41:46;96717.38;;;19.60;73.21
4199;BME280;2113;50.946;14.610;2022-07-01T01:44:14;96712.09;;;19.48;74.32
4199;BME280;2113;50.946;14.610;2022-07-01T01:46:42;96719.28;;;19.69;73.91
4199;BME280;2113;50.946;14.610;2022-07-01T01:49:10;96716.88;;;19.66;73.38
4199;BME280;2113;50.946;14.610;2022-07-01T01:51:38;96715.13;;;19.66;73.24
4199;BME280;2113;50.946;14.610;2022-07-01T01:54:06;96715.69;;;19.92;72.28
4199;BME280;2113;50.946;14.610;2022-07-01T01:56:35;96721.56;;;19.96;71.97
4199;BME280;2113;50.946;14.610;2022-07-01T01:59:03;96721.22;;;19.89;72.30
4199;BME280;2113;50.946;14.610;2022-07-01T02:01:31;96713.53;;;19.86;72.68
4199;BME280;2113;50.946;14.610;2022-07-01T02:03:59;96724.31;;;19.94;72.51
4199;BME280;2113;50.946;14.610;2022-07-01T02:06:27;96720.84;;;19.94;72.30
4199;BME280;2113;50.946;14.610;2022-07-01T02:08:55;96714.13;;;19.90;72.33
4199;BME280;2113;50.946;14.610;2022-07-01T02:11:23;96716.53;;;19.93;72.20
4199;BME280;2113;50.946;14.610;2022-07-01T02:13:52;96705.78;;;19.51;72.62
4199;BME280;2113;50.946;14.610;2022-07-01T02:16:20;96705.50;;;19.54;72.54
4199;BME280;2113;50.946;14.610;2022-07-01T02:18:48;96700.97;;;19.45;72.53
4199;BME280;2113;50.946;14.610;2022-07-01T02:21:16;96704.06;;;19.16;73.70
4199;BME280;2113;50.946;14.610;2022-07-01T02:23:44;96720.72;;;19.39;73.70
4199;BME280;2113;50.946;14.610;2022-07-01T02:26:12;96718.47;;;19.46;73.37
4199;BME280;2113;50.946;14.610;2022-07-01T02:28:40;96716.44;;;19.61;72.64
4199;BME280;2113;50.946;14.610;2022-07-01T02:31:10;96716.78;;;19.45;72.97
4199;BME280;2113;50.946;14.610;2022-07-01T02:33:39;96713.91;;;19.48;73.72
4199;BME280;2113;50.946;14.610;2022-07-01T02:36:07;96713.91;;;19.48;73.43
4199;BME280;2113;50.946;14.610;2022-07-01T02:38:35;96722.53;;;19.39;73.11
4199;BME280;2113;50.946;14.610;2022-07-01T02:41:03;96719.41;;;19.45;72.75
4199;BME280;2113;50.946;14.610;2022-07-01T02:43:30;96722.75;;;19.47;72.60
4199;BME280;2113;50.946;14.610;2022-07-01T02:45:58;96720.84;;;19.49;72.13
4199;BME280;2113;50.946;14.610;2022-07-01T02:48:28;96732.13;;;19.28;72.05
4199;BME280;2113;50.946;14.610;2022-07-01T02:50:55;96728.75;;;19.15;72.68
4199;BME280;2113;50.946;14.610;2022-07-01T02:53:23;96731.25;;;19.28;72.71
4199;BME280;2113;50.946;14.610;2022-07-01T02:55:51;96729.25;;;19.43;72.46
4199;BME280;2113;50.946;14.610;2022-07-01T02:58:19;96727.69;;;19.63;71.52
4199;BME280;2113;50.946;14.610;2022-07-01T03:00:47;96728.16;;;19.68;70.93
4199;BME280;2113;50.946;14.610;2022-07-01T03:03:15;96729.97;;;19.45;71.67
4199;BME280;2113;50.946;14.610;2022-07-01T03:05:44;96727.94;;;19.60;71.44
4199;BME280;2113;50.946;14.610;2022-07-01T03:08:14;96724.47;;;19.59;71.53
4199;BME280;2113;50.946;14.610;2022-07-01T03:10:41;96729.25;;;19.77;71.28
4199;BME280;2113;50.946;14.610;2022-07-01T03:13:09;96732.84;;;19.75;70.79
4199;BME280;2113;50.946;14.610;2022-07-01T03:15:37;96729.00;;;19.57;70.96
4199;BME280;2113;50.946;14.610;2022-07-01T03:18:05;96733.78;;;19.29;71.78
4199;BME280;2113;50.946;14.610;2022-07-01T03:20:33;96738.56;;;19.13;72.66
4199;BME280;2113;50.946;14.610;2022-07-01T03:23:02;96732.84;;;19.30;72.58
4199;BME280;2113;50.946;14.610;2022-07-01T03:25:30;96741.94;;;19.49;72.64
4199;BME280;2113;50.946;14.610;2022-07-01T03:27:58;96745.06;;;19.65;72.21
4199;BME280;2113;50.946;14.610;2022-07-01T03:30:30;96746.38;;;19.71;72.52
4199;BME280;2113;50.946;14.610;2022-07-01T03:32:59;96742.69;;;19.73;72.01
4199;BME280;2113;50.946;14.610;2022-07-01T03:35:27;96743.88;;;19.81;71.97
4199;BME280;2113;50.946;14.610;2022-07-01T03:38:07;96745.66;;;20.14;71.06
4199;BME280;2113;50.946;14.610;2022-07-01T03:40:35;96747.47;;;19.91;71.24
4199;BME280;2113;50.946;14.610;2022-07-01T03:43:03;96741.34;;;20.02;70.70
4199;BME280;2113;50.946;14.610;2022-07-01T03:45:31;96748.22;;;19.93;70.75
4199;BME280;2113;50.946;14.610;2022-07-01T03:47:59;96758.25;;;19.99;70.43
4199;BME280;2113;50.946;14.610;2022-07-01T03:50:28;96757.75;;;20.05;69.78
4199;BME280;2113;50.946;14.610;2022-07-01T03:52:57;96748.38;;;20.24;69.69
4199;BME280;2113;50.946;14.610;2022-07-01T03:55:43;96738.94;;;20.42;70.22
4199;BME280;2113;50.946;14.610;2022-07-01T03:58:11;96749.94;;;20.59;69.82
4199;BME280;2113;50.946;14.610;2022-07-01T04:00:39;96755.38;;;20.46;70.03
4199;BME280;2113;50.946;14.610;2022-07-01T04:03:07;96763.91;;;20.38;70.81
4199;BME280;2113;50.946;14.610;2022-07-01T04:05:36;96765.94;;;20.46;70.79
4199;BME280;2113;50.946;14.610;2022-07-01T04:08:06;96765.31;;;20.65;70.94
4199;BME280;2113;50.946;14.610;2022-07-01T04:10:39;96764.19;;;20.35;72.36
4199;BME280;2113;50.946;14.610;2022-07-01T04:13:09;96773.06;;;20.34;72.81
4199;BME280;2113;50.946;14.610;2022-07-01T04:15:58;96762.34;;;20.47;72.12
4199;BME280;2113;50.946;14.610;2022-07-01T04:18:28;96761.28;;;20.82;71.02
4199;BME280;2113;50.946;14.610;2022-07-01T04:20:56;96756.66;;;20.95;71.35
4199;BME280;2113;50.946;14.610;2022-07-01T04:23:42;96754.59;;;21.20;70.82
4199;BME280;2113;50.946;14.610;2022-07-01T04:26:10;96754.09;;;21.36;70.50
4199;BME280;2113;50.946;14.610;2022-07-01T04:28:59;96758.00;;;21.31;70.88
4199;BME280;2113;50.946;14.610;2022-07-01T04:31:33;96754.06;;;21.47;70.41
4199;BME280;2113;50.946;14.610;2022-07-01T04:34:02;96753.22;;;21.46;70.92
4199;BME280;2113;50.946;14.610;2022-07-01T04:36:30;96759.94;;;21.29;71.82
4199;BME280;2113;50.946;14.610;2022-07-01T04:38:58;96756.34;;;21.52;71.44
4199;BME280;2113;50.946;14.610;2022-07-01T04:41:26;96757.94;;;21.74;71.52
4199;BME280;2113;50.946;14.610;2022-07-01T04:44:14;96759.34;;;21.78;72.49
4199;BME280;2113;50.946;14.610;2022-07-01T04:46:42;96758.94;;;21.73;72.74
4199;BME280;2113;50.946;14.610;2022-07-01T04:49:10;96765.88;;;22.24;71.96
4199;BME280;2113;50.946;14.610;2022-07-01T04:51:37;96763.44;;;22.32;70.93
4199;BME280;2113;50.946;14.610;2022-07-01T04:54:06;96769.56;;;22.33;71.00
4199;BME280;2113;50.946;14.610;2022-07-01T04:56:36;96762.06;;;22.38;70.94
4199;BME280;2113;50.946;14.610;2022-07-01T04:59:10;96760.94;;;22.40;71.02
4199;BME280;2113;50.946;14.610;2022-07-01T05:01:39;96762.06;;;22.47;71.25
4199;BME280;2113;50.946;14.610;2022-07-01T05:04:07;96758.16;;;22.52;71.77
4199;BME280;2113;50.946;14.610;2022-07-01T05:06:35;96753.16;;;22.68;71.04
4199;BME280;2113;50.946;14.610;2022-07-01T05:09:04;96747.28;;;22.94;70.49
4199;BME280;2113;50.946;14.610;2022-07-01T05:11:32;96756.22;;;23.12;70.20
4199;BME280;2113;50.946;14.610;2022-07-01T05:14:01;96744.75;;;23.21;70.13
4199;BME280;2113;50.946;14.610;2022-07-01T05:16:28;96753.97;;;23.08;71.46
4199;BME280;2113;50.946;14.610;2022-07-01T05:18:58;96752.59;;;23.03;71.90
4199;BME280;2113;50.946;14.610;2022-07-01T05:21:43;96757.28;;;23.29;71.41
4199;BME280;2113;50.946;14.610;2022-07-01T05:24:31;96759.81;;;23.31;71.75
4199;BME280;2113;50.946;14.610;2022-07-01T05:27:00;96762.03;;;23.35;71.97
4199;BME280;2113;50.946;14.610;2022-07-01T05:29:28;96767.56;;;23.52;71.58
4199;BME280;2113;50.946;14.610;2022-07-01T05:31:58;96764.78;;;23.53;71.81
4199;BME280;2113;50.946;14.610;2022-07-01T05:34:28;96770.31;;;23.70;70.81
4199;BME280;2113;50.946;14.610;2022-07-01T05:36:56;96770.53;;;23.86;70.35
4199;BME280;2113;50.946;14.610;2022-07-01T05:39:24;96775.56;;;24.17;69.22
4199;BME280;2113;50.946;14.610;2022-07-01T05:41:52;96777.69;;;24.13;68.55
4199;BME280;2113;50.946;14.610;2022-07-01T05:44:20;96769.94;;;24.48;66.55
4199;BME280;2113;50.946;14.610;2022-07-01T05:46:50;96770.63;;;24.50;66.41
4199;BME280;2113;50.946;14.610;2022-07-01T05:49:18;96768.00;;;24.22;65.45
4199;BME280;2113;50.946;14.610;2022-07-01T05:51:47;96767.94;;;24.32;66.02
4199;BME280;2113;50.946;14.610;2022-07-01T05:54:15;96767.88;;;24.41;64.39
4199;BME280;2113;50.946;14.610;2022-07-01T05:56:43;96776.19;;;24.74;64.47
4199;BME280;2113;50.946;14.610;2022-07-01T05:59:11;96772.03;;;24.90;64.37
4199;BME280;2113;50.946;14.610;2022-07-01T06:01:39;96767.06;;;24.95;63.92
4199;BME280;2113;50.946;14.610;2022-07-01T06:04:06;96766.44;;;25.01;63.39
4199;BME280;2113;50.946;14.610;2022-07-01T06:06:35;96767.22;;;25.11;64.02
4199;BME280;2113;50.946;14.610;2022-07-01T06:09:04;96760.59;;;25.15;63.70
4199;BME280;2113;50.946;14.610;2022-07-01T06:11:32;96761.13;;;25.19;62.97
4199;BME280;2113;50.946;14.610;2022-07-01T06:13:59;96761.44;;;25.34;62.96
4199;BME280;2113;50.946;14.610;2022-07-01T06:16:27;96769.75;;;25.39;63.19
4199;BME280;2113;50.946;14.610;2022-07-01T06:18:57;96760.03;;;25.82;62.88
4199;BME280;2113;50.946;14.610;2022-07-01T06:21:25;96759.00;;;25.75;61.89
4199;BME280;2113;50.946;14.610;2022-07-01T06:23:53;96766.41;;;25.37;61.12
4199;BME280;2113;50.946;14.610;2022-07-01T06:26:23;96758.81;;;25.42;60.75
4199;BME280;2113;50.946;14.610;2022-07-01T06:28:50;96766.53;;;25.27;61.38
4199;BME280;2113;50.946;14.610;2022-07-01T06:31:18;96763.38;;;25.58;60.92
4199;BME280;2113;50.946;14.610;2022-07-01T06:33:47;96768.88;;;25.56;60.83
4199;BME280;2113;50.946;14.610;2022-07-01T06:36:15;96767.59;;;25.61;59.76
4199;BME280;2113;50.946;14.610;2022-07-01T06:38:43;96770.31;;;25.51;60.67
4199;BME280;2113;50.946;14.610;2022-07-01T06:41:11;96774.09;;;25.22;59.99
4199;BME280;2113;50.946;14.610;2022-07-01T06:43:55;96772.16;;;25.50;60.83
4199;BME280;2113;50.946;14.610;2022-07-01T06:46:24;96770.13;;;25.44;60.46
4199;BME280;2113;50.946;14.610;2022-07-01T06:48:52;96776.19;;;25.28;59.27
4199;BME280;2113;50.946;14.610;2022-07-01T06:51:21;96770.81;;;25.46;60.70
4199;BME280;2113;50.946;14.610;2022-07-01T06:53:49;96764.19;;;25.50;60.23
4199;BME280;2113;50.946;14.610;2022-07-01T06:56:17;96761.75;;;28.29;51.37
4199;BME280;2113;50.946;14.610;2022-07-01T06:58:45;96759.47;;;31.82;42.16
4199;BME280;2113;50.946;14.610;2022-07-01T07:01:14;96752.28;;;35.08;36.02
4199;BME280;2113;50.946;14.610;2022-07-01T07:03:42;96764.50;;;34.85;35.10
4199;BME280;2113;50.946;14.610;2022-07-01T07:06:10;96762.75;;;34.21;37.12
4199;BME280;2113;50.946;14.610;2022-07-01T07:08:38;96761.63;;;33.63;37.75
4199;BME280;2113;50.946;14.610;2022-07-01T07:11:06;96762.50;;;34.29;35.81
4199;BME280;2113;50.946;14.610;2022-07-01T07:13:35;96753.88;;;34.52;35.58
4199;BME280;2113;50.946;14.610;2022-07-01T07:16:04;96755.16;;;35.45;34.93
4199;BME280;2113;50.946;14.610;2022-07-01T07:18:33;96769.59;;;34.17;35.87
4199;BME280;2113;50.946;14.610;2022-07-01T07:21:01;96768.22;;;33.74;37.24
4199;BME280;2113;50.946;14.610;2022-07-01T07:23:30;96772.38;;;33.50;36.54
4199;BME280;2113;50.946;14.610;2022-07-01T07:25:58;96776.34;;;32.52;38.01
4199;BME280;2113;50.946;14.610;2022-07-01T07:28:25;96780.66;;;33.42;37.41
4199;BME280;2113;50.946;14.610;2022-07-01T07:30:53;96784.66;;;32.57;38.25
4199;BME280;2113;50.946;14.610;2022-07-01T07:33:22;96788.03;;;32.86;38.11
4199;BME280;2113;50.946;14.610;2022-07-01T07:35:52;96781.84;;;35.03;34.61
4199;BME280;2113;50.946;14.610;2022-07-01T07:38:20;96787.41;;;35.40;33.22
4199;BME280;2113;50.946;14.610;2022-07-01T07:40:48;96778.25;;;35.41;32.44
4199;BME280;2113;50.946;14.610;2022-07-01T07:43:16;96787.25;;;35.03;33.63
4199;BME280;2113;50.946;14.610;2022-07-01T07:45:44;96783.06;;;37.71;30.52
4199;BME280;2113;50.946;14.610;2022-07-01T07:48:12;96781.75;;;36.96;30.16
4199;BME280;2113;50.946;14.610;2022-07-01T07:50:40;96777.66;;;34.23;35.01
4199;BME280;2113;50.946;14.610;2022-07-01T07:53:09;96779.13;;;35.35;34.56
4199;BME280;2113;50.946;14.610;2022-07-01T07:55:38;96792.41;;;35.61;33.28
4199;BME280;2113;50.946;14.610;2022-07-01T07:58:07;96787.84;;;34.73;33.47
4199;BME280;2113;50.946;14.610;2022-07-01T08:00:35;96788.81;;;35.17;33.20
4199;BME280;2113;50.946;14.610;2022-07-01T08:03:06;96795.16;;;34.98;34.46
4199;BME280;2113;50.946;14.610;2022-07-01T08:05:34;96807.16;;;33.98;35.37
4199;BME280;2113;50.946;14.610;2022-07-01T08:08:03;96792.66;;;33.92;35.97
4199;BME280;2113;50.946;14.610;2022-07-01T08:10:32;96797.59;;;35.63;32.81
4199;BME280;2113;50.946;14.610;2022-07-01T08:13:00;96790.41;;;36.19;32.74
4199;BME280;2113;50.946;14.610;2022-07-01T08:15:31;96792.03;;;35.83;32.20
4199;BME280;2113;50.946;14.610;2022-07-01T08:17:59;96794.47;;;36.10;31.96
4199;BME280;2113;50.946;14.610;2022-07-01T08:20:27;96801.75;;;36.95;31.89
4199;BME280;2113;50.946;14.610;2022-07-01T08:22:55;96807.63;;;36.24;32.29
4199;BME280;2113;50.946;14.610;2022-07-01T08:25:23;96807.25;;;35.52;32.40
4199;BME280;2113;50.946;14.610;2022-07-01T08:27:52;96802.34;;;34.27;35.17
4199;BME280;2113;50.946;14.610;2022-07-01T08:30:20;96817.63;;;34.46;35.22
4199;BME280;2113;50.946;14.610;2022-07-01T08:32:49;96818.44;;;34.99;35.12
4199;BME280;2113;50.946;14.610;2022-07-01T08:35:17;96827.03;;;35.21;34.56
4199;BME280;2113;50.946;14.610;2022-07-01T08:37:45;96831.31;;;34.51;36.26
4199;BME280;2113;50.946;14.610;2022-07-01T08:40:13;96844.38;;;35.38;33.62
4199;BME280;2113;50.946;14.610;2022-07-01T08:42:41;96841.56;;;34.81;34.30
4199;BME280;2113;50.946;14.610;2022-07-01T08:45:11;96851.69;;;34.47;34.80
4199;BME280;2113;50.946;14.610;2022-07-01T08:47:49;96850.88;;;35.56;33.92
4199;BME280;2113;50.946;14.610;2022-07-01T08:50:18;96857.72;;;34.36;35.10
4199;BME280;2113;50.946;14.610;2022-07-01T08:52:49;96847.38;;;35.23;35.05
4199;BME280;2113;50.946;14.610;2022-07-01T08:55:17;96845.31;;;36.01;34.27
4199;BME280;2113;50.946;14.610;2022-07-01T08:57:45;96851.97;;;34.78;35.10
4199;BME280;2113;50.946;14.610;2022-07-01T09:00:15;96852.22;;;32.76;38.47
4199;BME280;2113;50.946;14.610;2022-07-01T09:02:52;96863.13;;;32.26;39.00
4199;BME280;2113;50.946;14.610;2022-07-01T09:05:21;96853.50;;;34.67;35.20
4199;BME280;2113;50.946;14.610;2022-07-01T09:07:55;96861.06;;;34.11;36.27
4199;BME280;2113;50.946;14.610;2022-07-01T09:10:24;96868.47;;;32.19;39.02
4199;BME280;2113;50.946;14.610;2022-07-01T09:12:52;96877.81;;;29.83;45.20
4199;BME280;2113;50.946;14.610;2022-07-01T09:15:24;96877.06;;;28.18;49.03
4199;BME280;2113;50.946;14.610;2022-07-01T09:17:55;96880.47;;;27.54;50.57
4199;BME280;2113;50.946;14.610;2022-07-01T09:20:28;96884.03;;;26.71;52.90
4199;BME280;2113;50.946;14.610;2022-07-01T09:23:00;96879.50;;;27.56;50.46
4199;BME280;2113;50.946;14.610;2022-07-01T09:25:36;96886.69;;;28.44;48.08
4199;BME280;2113;50.946;14.610;2022-07-01T09:28:18;96880.31;;;28.45;48.37
4199;BME280;2113;50.946;14.610;2022-07-01T09:30:50;96879.03;;;29.35;47.01
4199;BME280;2113;50.946;14.610;2022-07-01T09:33:21;96888.03;;;28.40;49.22
4199;BME280;2113;50.946;14.610;2022-07-01T09:35:51;96909.28;;;27.18;50.70
4199;BME280;2113;50.946;14.610;2022-07-01T09:38:20;96903.06;;;27.01;52.23
4199;BME280;2113;50.946;14.610;2022-07-01T09:41:00;96909.38;;;26.15;54.28
4199;BME280;2113;50.946;14.610;2022-07-01T09:43:30;96918.09;;;26.25;53.32
4199;BME280;2113;50.946;14.610;2022-07-01T09:46:03;96919.53;;;27.80;49.69
4199;BME280;2113;50.946;14.610;2022-07-01T09:48:45;96917.84;;;28.04;49.92
4199;BME280;2113;50.946;14.610;2022-07-01T09:51:14;96918.53;;;27.48;50.62
4199;BME280;2113;50.946;14.610;2022-07-01T09:53:43;96928.84;;;25.89;54.21
4199;BME280;2113;50.946;14.610;2022-07-01T09:56:11;96927.63;;;25.84;54.63
4199;BME280;2113;50.946;14.610;2022-07-01T09:58:41;96916.63;;;27.08;52.50
4199;BME280;2113;50.946;14.610;2022-07-01T10:01:13;96921.50;;;28.19;49.12
4199;BME280;2113;50.946;14.610;2022-07-01T10:03:42;96932.56;;;26.91;52.20
4199;BME280;2113;50.946;14.610;2022-07-01T10:06:42;96935.72;;;26.18;53.66
4199;BME280;2113;50.946;14.610;2022-07-01T10:09:23;96929.09;;;27.07;51.91
4199;BME280;2113;50.946;14.610;2022-07-01T10:12:21;96933.47;;;26.05;54.55
4199;BME280;2113;50.946;14.610;2022-07-01T10:14:56;96937.69;;;25.54;55.59
4199;BME280;2113;50.946;14.610;2022-07-01T10:17:28;96938.09;;;25.23;56.78
4199;BME280;2113;50.946;14.610;2022-07-01T10:20:05;96941.41;;;24.79;57.66
4199;BME280;2113;50.946;14.610;2022-07-01T10:22:35;96945.31;;;24.48;58.65
4199;BME280;2113;50.946;14.610;2022-07-01T10:25:33;96950.41;;;24.31;58.74
4199;BME280;2113;50.946;14.610;2022-07-01T10:28:22;96953.91;;;24.69;56.97
4199;BME280;2113;50.946;14.610;2022-07-01T10:30:55;96960.22;;;24.11;58.32
4199;BME280;2113;50.946;14.610;2022-07-01T10:33:34;96961.63;;;24.06;58.62
4199;BME280;2113;50.946;14.610;2022-07-01T10:36:14;96961.56;;;24.35;58.14
4199;BME280;2113;50.946;14.610;2022-07-01T10:39:09;96950.97;;;24.25;58.33
4199;BME280;2113;50.946;14.610;2022-07-01T10:41:38;96958.88;;;23.97;59.17
4199;BME280;2113;50.946;14.610;2022-07-01T10:44:09;96969.44;;;23.19;59.92
4199;BME280;2113;50.946;14.610;2022-07-01T10:46:44;96971.88;;;22.82;61.46
4199;BME280;2113;50.946;14.610;2022-07-01T10:49:15;96973.72;;;22.60;63.17
4199;BME280;2113;50.946;14.610;2022-07-01T10:51:48;96979.88;;;22.61;62.02
4199;BME280;2113;50.946;14.610;2022-07-01T10:54:44;96965.53;;;23.04;61.33
4199;BME280;2113;50.946;14.610;2022-07-01T10:57:32;96986.63;;;22.44;62.77
4199;BME280;2113;50.946;14.610;2022-07-01T11:00:34;96975.00;;;22.66;62.32
4199;BME280;2113;50.946;14.610;2022-07-01T11:03:12;96984.28;;;22.51;63.41
4199;BME280;2113;50.946;14.610;2022-07-01T11:05:43;96974.25;;;22.54;62.63
4199;BME280;2113;50.946;14.610;2022-07-01T11:08:11;96967.59;;;22.29;62.88
4199;BME280;2113;50.946;14.610;2022-07-01T11:10:50;96962.13;;;22.52;61.79
4199;BME280;2113;50.946;14.610;2022-07-01T11:13:19;96957.88;;;22.70;61.56
4199;BME280;2113;50.946;14.610;2022-07-01T11:15:47;96944.91;;;23.95;58.07
4199;BME280;2113;50.946;14.610;2022-07-01T11:18:16;96939.31;;;23.98;57.68
4199;BME280;2113;50.946;14.610;2022-07-01T11:20:45;96939.91;;;24.30;56.78
4199;BME280;2113;50.946;14.610;2022-07-01T11:23:14;96937.34;;;24.00;57.44
4199;BME280;2113;50.946;14.610;2022-07-01T11:25:43;96937.91;;;23.65;57.54
4199;BME280;2113;50.946;14.610;2022-07-01T11:28:11;96933.25;;;24.16;57.35
4199;BME280;2113;50.946;14.610;2022-07-01T11:30:40;96932.13;;;25.11;56.03
4199;BME280;2113;50.946;14.610;2022-07-01T11:33:09;96945.53;;;24.92;55.33
4199;BME280;2113;50.946;14.610;2022-07-01T11:35:38;96956.53;;;24.32;56.15
4199;BME280;2113;50.946;14.610;2022-07-01T11:38:25;96976.06;;;23.54;58.43
4199;BME280;2113;50.946;14.610;2022-07-01T11:41:19;96987.91;;;23.40;59.04
4199;BME280;2113;50.946;14.610;2022-07-01T11:43:47;96996.03;;;23.97;58.07
4199;BME280;2113;50.946;14.610;2022-07-01T11:46:15;96999.69;;;22.97;59.75
4199;BME280;2113;50.946;14.610;2022-07-01T11:48:46;97014.59;;;22.98;60.13
4199;BME280;2113;50.946;14.610;2022-07-01T11:51:18;97018.63;;;22.93;59.99
4199;BME280;2113;50.946;14.610;2022-07-01T11:53:49;97033.91;;;22.79;59.66
4199;BME280;2113;50.946;14.610;2022-07-01T11:56:27;97027.44;;;22.93;60.12
4199;BME280;2113;50.946;14.610;2022-07-01T11:58:56;97023.78;;;22.33;60.96
4199;BME280;2113;50.946;14.610;2022-07-01T12:01:27;97022.28;;;22.61;61.03
4199;BME280;2113;50.946;14.610;2022-07-01T12:03:56;97015.28;;;22.60;61.24
4199;BME280;2113;50.946;14.610;2022-07-01T12:06:25;97029.53;;;22.59;61.13
4199;BME280;2113;50.946;14.610;2022-07-01T12:08:56;97019.91;;;21.95;62.29
4199;BME280;2113;50.946;14.610;2022-07-01T12:11:26;97022.34;;;21.86;62.51
4199;BME280;2113;50.946;14.610;2022-07-01T12:13:55;97022.47;;;21.41;63.27
4199;BME280;2113;50.946;14.610;2022-07-01T12:16:24;97032.38;;;21.28;63.19
4199;BME280;2113;50.946;14.610;2022-07-01T12:18:57;97039.78;;;21.57;63.17
4199;BME280;2113;50.946;14.610;2022-07-01T12:21:28;97043.63;;;21.53;62.82
4199;BME280;2113;50.946;14.610;2022-07-01T12:24:04;97046.94;;;21.11;64.18
4199;BME280;2113;50.946;14.610;2022-07-01T12:26:33;97018.97;;;20.86;64.58
4199;BME280;2113;50.946;14.610;2022-07-01T12:29:00;97033.06;;;20.64;65.13
4199;BME280;2113;50.946;14.610;2022-07-01T12:31:28;97036.59;;;20.40;65.89
4199;BME280;2113;50.946;14.610;2022-07-01T12:34:36;97046.59;;;20.01;66.39
4199;BME280;2113;50.946;14.610;2022-07-01T12:37:08;97045.34;;;19.94;66.60
4199;BME280;2113;50.946;14.610;2022-07-01T12:39:44;97033.13;;;19.69;68.03
4199;BME280;2113;50.946;14.610;2022-07-01T12:42:23;97032.72;;;19.62;67.93
4199;BME280;2113;50.946;14.610;2022-07-01T12:44:52;97038.22;;;19.72;68.00
4199;BME280;2113;50.946;14.610;2022-07-01T12:47:21;97044.41;;;19.23;68.37
4199;BME280;2113;50.946;14.610;2022-07-01T12:49:49;97038.13;;;19.36;68.06
4199;BME280;2113;50.946;14.610;2022-07-01T12:52:24;97039.53;;;19.29;68.95
4199;BME280;2113;50.946;14.610;2022-07-01T12:54:56;97044.41;;;19.47;68.65
4199;BME280;2113;50.946;14.610;2022-07-01T12:57:29;97055.72;;;19.60;69.44
4199;BME280;2113;50.946;14.610;2022-07-01T13:00:05;97057.88;;;19.55;70.18
4199;BME280;2113;50.946;14.610;2022-07-01T13:02:33;97057.88;;;19.31;71.10
4199;BME280;2113;50.946;14.610;2022-07-01T13:05:01;97060.63;;;19.53;70.13
4199;BME280;2113;50.946;14.610;2022-07-01T13:07:29;97052.22;;;19.24;70.99
4199;BME280;2113;50.946;14.610;2022-07-01T13:09:59;97055.16;;;19.20;71.06
4199;BME280;2113;50.946;14.610;2022-07-01T13:12:27;97071.59;;;19.23;71.83
4199;BME280;2113;50.946;14.610;2022-07-01T13:14:54;97068.94;;;19.36;71.76
4199;BME280;2113;50.946;14.610;2022-07-01T13:17:23;97074.81;;;19.40;71.85
4199;BME280;2113;50.946;14.610;2022-07-01T13:19:52;97085.13;;;19.43;72.21
4199;BME280;2113;50.946;14.610;2022-07-01T13:22:20;97083.06;;;19.59;71.32
4199;BME280;2113;50.946;14.610;2022-07-01T13:24:48;97085.25;;;19.65;71.46
4199;BME280;2113;50.946;14.610;2022-07-01T13:27:18;97080.97;;;19.64;70.40
4199;BME280;2113;50.946;14.610;2022-07-01T13:29:47;97103.97;;;19.12;72.48
4199;BME280;2113;50.946;14.610;2022-07-01T13:32:15;97111.38;;;18.94;72.55
4199;BME280;2113;50.946;14.610;2022-07-01T13:34:44;97105.59;;;18.89;73.00
4199;BME280;2113;50.946;14.610;2022-07-01T13:37:12;97113.50;;;18.89;73.06
4199;BME280;2113;50.946;14.610;2022-07-01T13:39:41;97128.91;;;18.95;72.88
4199;BME280;2113;50.946;14.610;2022-07-01T13:42:09;97127.72;;;19.00;73.03
4199;BME280;2113;50.946;14.610;2022-07-01T13:44:39;97126.84;;;19.25;71.95
4199;BME280;2113;50.946;14.610;2022-07-01T13:47:07;97142.97;;;19.20;71.30
4199;BME280;2113;50.946;14.610;2022-07-01T13:49:36;97149.19;;;18.93;71.92
4199;BME280;2113;50.946;14.610;2022-07-01T13:52:05;97154.41;;;18.82;73.11
4199;BME280;2113;50.946;14.610;2022-07-01T13:54:33;97167.34;;;18.85;72.18
4199;BME280;2113;50.946;14.610;2022-07-01T13:57:01;97171.78;;;18.97;71.86
4199;BME280;2113;50.946;14.610;2022-07-01T13:59:29;97177.03;;;19.23;70.99
4199;BME280;2113;50.946;14.610;2022-07-01T14:01:59;97181.13;;;19.27;70.99
4199;BME280;2113;50.946;14.610;2022-07-01T14:04:27;97177.66;;;19.01;71.18
4199;BME280;2113;50.946;14.610;2022-07-01T14:06:55;97186.09;;;18.93;71.16
4199;BME280;2113;50.946;14.610;2022-07-01T14:09:23;97174.47;;;18.57;71.67
4199;BME280;2113;50.946;14.610;2022-07-01T14:11:51;97183.88;;;19.13;71.50